Terminal Aerodrome Forecast
Issued by NWS

Home | Current Version | Previous Version | Text Only | Print | Product List | Glossary On
Versions: 1 2 3 4 5 6 7 8 9 10 11 12 13 14
000
FTUS42 TJSJ 221700
TAFISX
TAF
TISX 221722Z 2218/2318 11012KT P6SM FEW022 SCT029 SCT040
     FM222230 08010KT P6SM VCSH SCT025 BKN050 BKN100 PROB30
      2306/2310 VRB12G20KT 3SM +SHRA BKN022
     FM231300 11013KT P6SM VCTS SCT022CB BKN040=

USA.gov is the U.S. government's official web portal to all federal, state and local government web resources and services.